TimeAKDT,TemperatureF,Dew PointF,Humidity,Sea Level PressureIn,VisibilityMPH,Wind Direction,Wind SpeedMPH,Gust SpeedMPH,PrecipitationIn,Events,Conditions,WindDirDegrees,DateUTC
12:53 AM,19.0,12.9,77,29.67,10.0,Calm,Calm,-,N/A,,Clear,0,2012-03-26 08:53:00
1:53 AM,19.0,12.9,77,29.66,10.0,ENE,3.5,-,N/A,,Clear,60,2012-03-26 09:53:00
2:53 AM,21.0,12.9,71,29.65,10.0,NE,4.6,-,N/A,,Clear,40,2012-03-26 10:53:00
3:53 AM,18.0,12.0,78,29.63,10.0,ENE,4.6,-,N/A,,Clear,60,2012-03-26 11:53:00
4:53 AM,19.9,12.9,74,29.62,10.0,ENE,3.5,-,N/A,,Clear,60,2012-03-26 12:53:00
5:53 AM,18.0,12.9,81,29.60,10.0,NE,3.5,-,N/A,,Clear,40,2012-03-26 13:53:00
6:53 AM,19.9,14.0,78,29.58,10.0,NE,3.5,-,N/A,,Clear,40,2012-03-26 14:53:00
8:53 AM,18.0,12.9,81,29.57,10.0,Calm,Calm,-,N/A,,Clear,0,2012-03-26 16:53:00
9:53 AM,25.0,19.9,81,29.56,10.0,ENE,9.2,-,N/A,,Clear,70,2012-03-26 17:53:00
10:53 AM,27.0,19.9,75,29.54,10.0,East,4.6,-,N/A,,Clear,80,2012-03-26 18:53:00
11:53 AM,30.9,23.0,72,29.54,10.0,ENE,8.1,-,N/A,,Scattered Clouds,70,2012-03-26 19:53:00
12:53 PM,33.1,24.1,70,29.53,10.0,East,6.9,-,N/A,,Mostly Cloudy,80,2012-03-26 20:53:00
1:53 PM,35.1,24.1,64,29.52,10.0,East,6.9,-,N/A,,Mostly Cloudy,80,2012-03-26 21:53:00
2:53 PM,36.0,25.0,64,29.52,10.0,ENE,6.9,-,N/A,,Scattered Clouds,70,2012-03-26 22:53:00
3:53 PM,37.0,25.0,62,29.51,10.0,Calm,Calm,-,N/A,,Partly Cloudy,0,2012-03-26 23:53:00
4:53 PM,36.0,26.1,67,29.50,10.0,East,3.5,-,N/A,,Overcast,80,2012-03-27 00:53:00
5:53 PM,37.0,25.0,62,29.49,10.0,ENE,10.4,-,N/A,,Mostly Cloudy,70,2012-03-27 01:53:00
6:53 PM,36.0,25.0,64,29.49,10.0,East,5.8,-,N/A,,Partly Cloudy,90,2012-03-27 02:53:00
7:53 PM,34.0,27.0,75,29.49,10.0,Calm,Calm,-,N/A,,Partly Cloudy,0,2012-03-27 03:53:00
8:53 PM,32.0,26.1,79,29.51,10.0,WSW,4.6,-,N/A,,Mostly Cloudy,240,2012-03-27 04:53:00
9:53 PM,32.0,26.1,79,29.51,10.0,North,-9999.0,-,N/A,,Mostly Cloudy,0,2012-03-27 05:53:00
10:53 PM,28.0,24.1,85,29.51,10.0,Calm,Calm,-,N/A,,Partly Cloudy,0,2012-03-27 06:53:00
11:53 PM,28.0,23.0,81,29.51,10.0,Calm,Calm,-,N/A,,Partly Cloudy,0,2012-03-27 07:53:00